• Join FlightAware (Why Join?)
  • Login
  • US Flag 
10:10PM EDT


 

Airport Tracker/Info


-or-


 

Live Flight TrackerFlight Track Log ✈ SWA565 ✈ 22-Apr-2013 ✈ KLAS - KSFO

Flight Track Log - Related Links

Times and Time Zones

All times are in EDT time to prevent confusion due to time zone crossing. See the SWA565 flight status page for this flight to view local times or setup timezone preferences in your user account.

Time Position Orientation Groundspeed Altitude Reporting Facility
EDT Latitude Longitude Course Direction KTS MPH feet Rate Location/Type
01:57AM 36.1217 -115.1983 291° West 199 229 5,200  Level Los Angeles Center
01:58AM 36.1117 -115.2614 259° West 234 269 7,300 2,400 Climbing Los Angeles Center
01:59AM 36.0575 -115.3153 219° Southwest 262 302 9,700 1,860 Climbing Los Angeles Center
02:00AM 35.9753 -115.3569 202° Southwest 301 346 11,200 1,980 Climbing Los Angeles Center
02:01AM 35.9222 -115.4531 236° Southwest 349 402 13,800 2,520 Climbing Los Angeles Center
02:02AM 35.9161 -115.5819 267° West 362 417 16,400 2,580 Climbing Los Angeles Center
02:03AM 35.9092 -115.7078 266° West 366 421 19,100 2,580 Climbing Los Angeles Center
02:04AM 35.9028 -115.8322 266° West 364 419 21,700 1,800 Climbing Los Angeles Center
02:05AM 35.8981 -115.9556 267° West 360 414 22,800 1,140 Climbing Los Angeles Center
02:06AM 35.9639 -116.0469 312° West 393 452 24,000 1,320 Climbing Los Angeles Center
02:07AM 36.0544 -116.1522 317° Northwest 398 458 25,500 1,320 Climbing Los Angeles Center
02:08AM 36.1272 -116.2364 317° Northwest 405 466 26,800 1,560 Climbing Los Angeles Center
02:09AM 36.2094 -116.3314 317° Northwest 406 467 28,700 1,740 Climbing Los Angeles Center
02:10AM 36.3072 -116.4456 317° Northwest 404 465 30,400 1,680 Climbing Los Angeles Center
02:11AM 36.3867 -116.5375 317° Northwest 395 455 32,200 1,440 Climbing Los Angeles Center
02:12AM 36.4636 -116.6261 317° Northwest 382 440 33,400 840 Climbing Los Angeles Center
02:13AM 36.5369 -116.7133 316° Northwest 384 442 34,000 240 Climbing Los Angeles Center
02:14AM 36.6250 -116.7933 324° Northwest 393 452 34,000  Level Los Angeles Center
02:15AM 36.7200 -116.8642 329° Northwest 396 456 34,000  Level Los Angeles Center
02:16AM 36.8147 -116.9369 328° Northwest 399 459 34,000  Level Los Angeles Center
02:17AM 36.9092 -117.0086 329° Northwest 397 457 34,000  Level Los Angeles Center
02:17AM 36.9653 -117.0542 327° Northwest 397 457 34,000  Level Oakland Center
02:18AM 37.0597 -117.1275 328° Northwest 397 457 34,000  Level Oakland Center
02:19AM 37.1542 -117.2003 328° Northwest 398 458 34,000  Level Oakland Center
02:20AM 37.2478 -117.2725 328° Northwest 395 455 34,000  Level Oakland Center
02:21AM 37.2975 -117.3800 300° West 375 432 34,000  Level Oakland Center
02:23AM 37.3100 -117.5064 277° West 367 422 34,000  Level Oakland Center
02:24AM 37.3233 -117.6328 278° West 365 420 34,000  Level Oakland Center
02:25AM 37.3367 -117.7581 278° West 361 415 34,000  Level Oakland Center
02:26AM 37.3492 -117.8803 277° West 356 410 34,000  Level Oakland Center
02:27AM 37.3611 -118.0011 277° West 349 402 34,000  Level Oakland Center
02:28AM 37.3736 -118.1217 277° West 347 399 34,000  Level Oakland Center
02:29AM 37.3864 -118.2428 278° West 348 400 34,000  Level Oakland Center
02:30AM 37.3978 -118.3642 277° West 348 400 34,000  Level Oakland Center
02:31AM 37.4106 -118.4892 277° West 357 411 34,000  Level Oakland Center
02:32AM 37.4228 -118.6203 277° West 373 429 34,000  Level Oakland Center
02:33AM 37.4361 -118.7525 277° West 381 438 34,000  Level Oakland Center
02:34AM 37.4497 -118.9031 277° West 390 449 34,000  Level Oakland Center
02:35AM 37.4633 -119.0414 277° West 398 458 34,000  Level Oakland Center
02:36AM 37.4778 -119.1875 277° West 427 491 34,000  Level Oakland Center
02:37AM 37.4908 -119.3286 277° West 412 474 34,000  Level Oakland Center
02:38AM 37.5025 -119.4619 276° West 389 448 34,000  Level Oakland Center
02:39AM 37.5131 -119.6133 275° West 396 456 34,000 -360 Level Oakland Center
02:40AM 37.5269 -119.7531 277° West 397 457 33,300 -900 Descending Oakland Center
02:41AM 37.5375 -119.8933 275° West 402 463 32,200 -660 Descending Oakland Center
02:42AM 37.5508 -120.0294 277° West 404 465 32,000 -120 Descending Oakland Center
02:43AM 37.5650 -120.1722 277° West 395 455 32,000  Level Oakland Center
02:44AM 37.5775 -120.3200 276° West 417 480 32,000  Level Oakland Center
02:45AM 37.5881 -120.4664 275° West 418 481 32,000 -1,380 Level Oakland Center
02:46AM 37.6000 -120.6167 276° West 416 479 29,300 -2,640 Descending Northern Cal TRACON
02:47AM 37.6167 -120.7333 280° West 403 464 27,100 -2,520 Descending Northern Cal TRACON
02:48AM 37.6167 -120.8833 270° West 405 466 24,500 -2,460 Descending Northern Cal TRACON
02:49AM 37.6167 -121.0333 270° West 432 497 22,000 -2,820 Descending Northern Cal TRACON
02:50AM 37.6000 -121.2000 263° West 420 483 18,300 -3,240 Descending Northern Cal TRACON
02:51AM 37.5833 -121.3333 261° West 407 468 15,300 -3,000 Descending Northern Cal TRACON
02:52AM 37.5667 -121.4667 261° West 379 436 12,000 -1,980 Descending Northern Cal TRACON
02:53AM 37.5500 -121.6000 261° West 319 367 11,000 -1,140 Descending Northern Cal TRACON
02:54AM 37.5500 -121.6833 270° West 272 313 9,800 -1,620 Descending Northern Cal TRACON
02:55AM 37.5500 -121.7833 270° West 279 321 8,000 -900 Descending Northern Cal TRACON
02:56AM 37.5500 -121.8667 270° West 247 284 8,100 -540 Climbing Northern Cal TRACON
02:57AM 37.5333 -121.9500 256° West 257 296 7,000 -1,500 Descending Northern Cal TRACON
02:59AM 37.5419 -122.1214 274° West 249 287 3,900 -1,260 Descending Oakland Center
03:01AM 37.5901 -122.3136 302° West  Level FlightAware Approximate
03:02AM 37.5936 -122.3181 302° West 182 209 800  Level Oakland Center
03:03AM 37.6142 -122.3631 300° West 161 185 200 -600 Descending Oakland Center
03:05AM 37.6167 -122.3667 322° Northwest  Level FlightAware Approximate